Time;durP1;ratioP1;P1;durP2;ratioP2;P2;SDS_P1;SDS_P2;PMS_P1;PMS_P2;Temp;Humidity;BMP_temperature;BMP_pressure;BME280_temperature;BME280_humidity;BME280_pressure;Samples;Min_cycle;Max_cycle;Signal;HPM_P1;HPM_P2
2023/09/30 00:01:21;;;;;;;18.55;6.53;;;;;;;;;;4980620;28;20061;-69
2023/09/30 00:03:47;;;;;;;18.52;6.28;;;;;;;;;;4980933;28;20046;-70
2023/09/30 00:06:13;;;;;;;17.30;5.70;;;;;;;;;;4979912;28;20054;-70
2023/09/30 00:08:39;;;;;;;15.77;5.65;;;;;;;;;;4978670;28;20065;-70
2023/09/30 00:11:05;;;;;;;18.55;5.88;;;;;;;;;;4980104;28;20090;-69
2023/09/30 00:13:31;;;;;;;17.52;5.68;;;;;;;;;;4980148;28;20093;-69
2023/09/30 00:15:57;;;;;;;19.10;6.07;;;;;;;;;;4979485;28;20093;-70
2023/09/30 00:18:22;;;;;;;19.58;6.60;;;;;;;;;;4979355;28;20046;-68
2023/09/30 00:20:48;;;;;;;19.60;6.00;;;;;;;;;;4994586;28;20046;-68
2023/09/30 00:23:13;;;;;;;17.77;5.50;;;;;;;;;;4978435;28;20077;-68
2023/09/30 00:25:39;;;;;;;20.27;5.68;;;;;;;;;;4982351;28;20042;-68
2023/09/30 00:28:04;;;;;;;18.55;5.95;;;;;;;;;;4982978;28;20049;-69
2023/09/30 00:30:30;;;;;;;19.95;6.28;;;;;;;;;;4979833;28;20188;-69
2023/09/30 00:32:56;;;;;;;21.42;6.40;;;;;;;;;;4981226;28;20054;-69
2023/09/30 00:35:22;;;;;;;17.02;6.05;;;;;;;;;;4981999;28;20062;-68
2023/09/30 00:37:48;;;;;;;18.27;6.80;;;;;;;;;;4995205;28;20100;-68
2023/09/30 00:40:13;;;;;;;18.50;5.93;;;;;;;;;;4979819;28;20519;-68
2023/09/30 00:42:39;;;;;;;19.25;5.97;;;;;;;;;;4979220;28;20121;-68
2023/09/30 00:45:06;;;;;;;18.73;5.97;;;;;;;;;;4979605;28;20062;-68
2023/09/30 00:47:33;;;;;;;19.77;6.45;;;;;;;;;;4979449;28;20042;-68
2023/09/30 00:49:59;;;;;;;17.10;6.32;;;;;;;;;;4980841;28;20057;-68
2023/09/30 00:52:25;;;;;;;14.07;5.45;;;;;;;;;;4980576;28;20041;-68
2023/09/30 00:54:53;;;;;;;16.00;5.80;;;;;;;;;;4979390;28;20054;-68
2023/09/30 00:57:20;;;;;;;16.55;5.78;;;;;;;;;;4979984;28;20502;-68
2023/09/30 00:59:47;;;;;;;17.25;6.15;;;;;;;;;;4979118;28;20531;-68
2023/09/30 01:02:12;;;;;;;17.48;6.22;;;;;;;;;;4995450;28;20050;-68
2023/09/30 01:04:38;;;;;;;20.75;6.00;;;;;;;;;;4978989;28;20061;-68
2023/09/30 01:07:05;;;;;;;22.45;7.00;;;;;;;;;;4979168;28;20054;-68
2023/09/30 01:09:31;;;;;;;18.27;6.60;;;;;;;;;;4995358;28;20527;-68
2023/09/30 01:11:57;;;;;;;18.02;6.40;;;;;;;;;;4979164;28;20045;-68
2023/09/30 01:14:25;;;;;;;14.60;6.05;;;;;;;;;;4994430;28;20042;-68
2023/09/30 01:16:51;;;;;;;16.13;5.72;;;;;;;;;;4979328;28;20081;-68
2023/09/30 01:19:17;;;;;;;20.13;6.95;;;;;;;;;;4985253;28;20085;-68
2023/09/30 01:21:48;;;;;;;16.25;6.53;;;;;;;;;;4980286;28;20045;-68
2023/09/30 01:24:16;;;;;;;17.48;6.28;;;;;;;;;;4979660;28;20089;-68
2023/09/30 01:26:42;;;;;;;17.40;6.60;;;;;;;;;;4994185;28;20157;-68
2023/09/30 01:29:11;;;;;;;21.70;6.57;;;;;;;;;;4987782;28;20137;-68
2023/09/30 01:31:39;;;;;;;14.48;5.88;;;;;;;;;;4980329;28;20046;-67
2023/09/30 01:34:05;;;;;;;19.40;6.03;;;;;;;;;;4984747;28;20579;-68
2023/09/30 01:36:31;;;;;;;17.65;6.53;;;;;;;;;;4972692;28;20133;-68
2023/09/30 01:38:57;;;;;;;19.02;6.20;;;;;;;;;;4997889;28;20050;-67
2023/09/30 01:41:23;;;;;;;17.00;6.47;;;;;;;;;;4982296;28;20518;-68
2023/09/30 01:43:48;;;;;;;20.90;6.90;;;;;;;;;;4982453;28;20042;-68
2023/09/30 01:46:14;;;;;;;21.98;7.07;;;;;;;;;;4987119;28;20054;-68
2023/09/30 01:48:39;;;;;;;19.40;7.30;;;;;;;;;;4984006;28;20228;-68
2023/09/30 01:51:06;;;;;;;17.85;5.57;;;;;;;;;;4983594;28;20137;-68
2023/09/30 01:53:32;;;;;;;22.55;6.65;;;;;;;;;;4997912;28;20189;-68
2023/09/30 01:55:58;;;;;;;21.65;7.68;;;;;;;;;;4983139;28;20264;-68
2023/09/30 01:58:24;;;;;;;20.25;6.68;;;;;;;;;;4997440;28;20535;-67
2023/09/30 02:00:50;;;;;;;16.73;6.40;;;;;;;;;;4980652;28;20042;-67
2023/09/30 02:03:17;;;;;;;23.17;6.65;;;;;;;;;;4982070;28;20475;-68
2023/09/30 02:05:43;;;;;;;18.98;7.10;;;;;;;;;;4982506;28;20748;-68
2023/09/30 02:08:08;;;;;;;22.33;7.15;;;;;;;;;;4982605;28;20042;-68
2023/09/30 02:10:34;;;;;;;22.27;7.28;;;;;;;;;;4981150;28;20444;-68
2023/09/30 02:12:59;;;;;;;18.33;7.32;;;;;;;;;;4983109;28;20063;-68
2023/09/30 02:15:25;;;;;;;18.55;7.10;;;;;;;;;;4980460;28;20157;-67
2023/09/30 02:17:51;;;;;;;21.70;7.15;;;;;;;;;;4997293;28;20053;-68
2023/09/30 02:20:19;;;;;;;21.02;7.43;;;;;;;;;;4997101;28;20534;-68
2023/09/30 02:22:45;;;;;;;19.55;6.90;;;;;;;;;;4996452;28;20137;-68
2023/09/30 02:25:12;;;;;;;22.35;7.60;;;;;;;;;;4979946;28;20082;-68
2023/09/30 02:27:39;;;;;;;26.52;7.32;;;;;;;;;;4996632;28;20086;-68
2023/09/30 02:30:05;;;;;;;25.10;8.00;;;;;;;;;;4982461;28;20495;-69
2023/09/30 02:32:33;;;;;;;21.13;7.32;;;;;;;;;;4981901;28;20112;-68
2023/09/30 02:34:58;;;;;;;25.70;6.75;;;;;;;;;;4982854;28;20507;-68
2023/09/30 02:37:25;;;;;;;19.08;7.25;;;;;;;;;;4982328;28;20133;-68
2023/09/30 02:39:50;;;;;;;16.92;6.60;;;;;;;;;;4991234;28;20435;-68
2023/09/30 02:42:16;;;;;;;21.00;7.63;;;;;;;;;;4989510;28;20042;-68
2023/09/30 02:44:41;;;;;;;16.92;6.85;;;;;;;;;;4981697;28;20634;-68
2023/09/30 02:47:08;;;;;;;21.42;7.60;;;;;;;;;;4980618;28;20219;-68
2023/09/30 02:49:35;;;;;;;20.58;7.18;;;;;;;;;;4982620;28;20447;-68
2023/09/30 02:52:01;;;;;;;20.60;7.25;;;;;;;;;;4983430;28;20053;-68
2023/09/30 02:54:27;;;;;;;17.85;7.05;;;;;;;;;;4982658;28;20047;-72
2023/09/30 02:56:54;;;;;;;20.20;7.13;;;;;;;;;;4982222;28;20054;-68
2023/09/30 02:59:22;;;;;;;23.45;7.53;;;;;;;;;;4989035;28;20041;-68
2023/09/30 03:01:49;;;;;;;24.25;7.80;;;;;;;;;;4972662;28;20065;-68
2023/09/30 03:04:18;;;;;;;21.55;7.25;;;;;;;;;;4990247;28;20605;-68
2023/09/30 03:06:44;;;;;;;22.50;7.45;;;;;;;;;;4979036;28;20053;-68
2023/09/30 03:09:12;;;;;;;22.08;7.50;;;;;;;;;;4978793;28;20573;-68
2023/09/30 03:11:38;;;;;;;16.83;7.45;;;;;;;;;;4981024;28;20073;-68
2023/09/30 03:14:03;;;;;;;19.50;7.13;;;;;;;;;;4981153;28;20707;-68
2023/09/30 03:16:30;;;;;;;23.83;7.88;;;;;;;;;;4979923;28;20052;-68
2023/09/30 03:18:56;;;;;;;22.30;7.00;;;;;;;;;;4981124;28;20134;-69
2023/09/30 03:21:21;;;;;;;23.10;7.68;;;;;;;;;;4980482;28;20038;-69
2023/09/30 03:23:47;;;;;;;25.38;7.95;;;;;;;;;;4981303;28;20072;-68
2023/09/30 03:26:13;;;;;;;22.00;7.82;;;;;;;;;;4981514;28;20046;-69
2023/09/30 03:28:38;;;;;;;21.30;7.68;;;;;;;;;;4978463;28;20038;-69
2023/09/30 03:31:05;;;;;;;19.95;7.43;;;;;;;;;;4980177;28;20054;-68
2023/09/30 03:33:34;;;;;;;19.77;7.53;;;;;;;;;;4984528;28;20050;-68
2023/09/30 03:35:59;;;;;;;24.83;7.07;;;;;;;;;;4984673;28;20128;-68
2023/09/30 03:38:29;;;;;;;23.50;7.55;;;;;;;;;;4984267;28;20156;-68
2023/09/30 03:40:54;;;;;;;24.42;7.68;;;;;;;;;;4983734;28;20133;-68
2023/09/30 03:43:21;;;;;;;24.75;7.38;;;;;;;;;;4984223;28;20150;-68
2023/09/30 03:45:46;;;;;;;23.30;7.53;;;;;;;;;;4984602;28;20061;-68
2023/09/30 03:48:12;;;;;;;28.00;8.02;;;;;;;;;;4985433;28;20046;-68
2023/09/30 03:50:38;;;;;;;23.77;7.10;;;;;;;;;;4983587;28;20046;-69
2023/09/30 03:53:07;;;;;;;22.52;7.97;;;;;;;;;;4983795;28;20050;-68
2023/09/30 03:55:33;;;;;;;31.42;7.75;;;;;;;;;;4984379;28;20042;-69
2023/09/30 03:57:58;;;;;;;25.17;7.88;;;;;;;;;;4984869;28;20073;-69
2023/09/30 04:00:24;;;;;;;19.33;6.85;;;;;;;;;;4983983;28;20051;-69
2023/09/30 04:02:54;;;;;;;22.27;7.22;;;;;;;;;;4981931;28;20038;-68
2023/09/30 04:05:24;;;;;;;17.60;7.00;;;;;;;;;;4996615;28;20062;-68
2023/09/30 04:07:49;;;;;;;19.05;6.05;;;;;;;;;;4981930;28;20050;-68
2023/09/30 04:10:15;;;;;;;23.55;6.97;;;;;;;;;;4981892;28;20046;-68
2023/09/30 04:12:40;;;;;;;22.55;6.90;;;;;;;;;;4979519;28;20578;-69
2023/09/30 04:15:06;;;;;;;21.55;6.80;;;;;;;;;;4981479;28;20046;-68
2023/09/30 04:17:32;;;;;;;25.50;7.70;;;;;;;;;;4980956;28;20049;-68
2023/09/30 04:19:58;;;;;;;22.33;7.03;;;;;;;;;;4980745;28;20088;-68
2023/09/30 04:22:25;;;;;;;18.25;6.72;;;;;;;;;;4981026;28;20074;-68
2023/09/30 04:24:50;;;;;;;20.30;7.65;;;;;;;;;;4979432;28;20109;-68
2023/09/30 04:27:17;;;;;;;22.33;6.80;;;;;;;;;;4979809;28;20050;-68
2023/09/30 04:29:43;;;;;;;17.88;7.13;;;;;;;;;;4979995;28;20779;-68
2023/09/30 04:32:09;;;;;;;23.60;7.63;;;;;;;;;;4978894;28;20082;-68
2023/09/30 04:34:35;;;;;;;25.35;7.30;;;;;;;;;;4979708;28;20054;-68
2023/09/30 04:37:00;;;;;;;19.55;7.88;;;;;;;;;;4979567;28;20635;-68
2023/09/30 04:39:26;;;;;;;18.80;7.07;;;;;;;;;;4980132;28;20129;-68
2023/09/30 04:41:51;;;;;;;22.58;7.25;;;;;;;;;;4979723;28;20150;-69
2023/09/30 04:44:16;;;;;;;19.85;7.53;;;;;;;;;;4979861;28;20402;-69
2023/09/30 04:46:45;;;;;;;15.48;6.72;;;;;;;;;;4979109;28;20990;-68
2023/09/30 04:49:12;;;;;;;20.50;7.00;;;;;;;;;;4982023;28;20076;-67
2023/09/30 04:51:39;;;;;;;21.00;7.53;;;;;;;;;;4981081;28;20104;-69
2023/09/30 04:54:06;;;;;;;17.25;6.90;;;;;;;;;;4984130;28;20046;-68
2023/09/30 04:56:32;;;;;;;20.23;7.53;;;;;;;;;;4979778;28;20157;-69
2023/09/30 04:58:58;;;;;;;20.98;7.53;;;;;;;;;;4979648;28;20060;-69
2023/09/30 05:01:24;;;;;;;22.05;7.05;;;;;;;;;;4979972;28;20042;-69
2023/09/30 05:03:50;;;;;;;19.58;7.10;;;;;;;;;;4980160;28;20046;-69
2023/09/30 05:06:15;;;;;;;18.88;6.53;;;;;;;;;;4978312;28;20053;-69
2023/09/30 05:08:41;;;;;;;19.25;6.60;;;;;;;;;;4976936;28;20049;-69
2023/09/30 05:11:07;;;;;;;20.42;6.82;;;;;;;;;;4977092;28;20046;-69
2023/09/30 05:13:34;;;;;;;19.45;7.03;;;;;;;;;;4978720;28;20088;-69
2023/09/30 05:15:59;;;;;;;18.13;6.93;;;;;;;;;;4975925;28;20050;-70
2023/09/30 05:18:24;;;;;;;15.63;6.13;;;;;;;;;;4981814;28;20050;-69
2023/09/30 05:20:50;;;;;;;17.48;6.43;;;;;;;;;;4980565;28;20046;-69
2023/09/30 05:23:15;;;;;;;18.38;6.40;;;;;;;;;;4982877;28;20045;-69
2023/09/30 05:25:42;;;;;;;20.23;6.85;;;;;;;;;;4979583;28;20046;-69
2023/09/30 05:28:09;;;;;;;18.40;6.72;;;;;;;;;;4978961;28;20060;-69
2023/09/30 05:30:34;;;;;;;19.13;6.80;;;;;;;;;;4954281;28;20057;-69
2023/09/30 05:33:00;;;;;;;18.55;6.63;;;;;;;;;;4977554;28;20396;-69
2023/09/30 05:35:27;;;;;;;19.63;6.50;;;;;;;;;;4979310;28;20046;-69
2023/09/30 05:37:53;;;;;;;20.05;6.78;;;;;;;;;;4978367;28;20543;-69
2023/09/30 05:40:24;;;;;;;26.33;8.25;;;;;;;;;;4978658;28;20556;-69
2023/09/30 05:42:51;;;;;;;20.83;8.45;;;;;;;;;;4975045;28;20551;-69
2023/09/30 05:45:17;;;;;;;24.42;8.18;;;;;;;;;;4977265;28;20064;-68
2023/09/30 05:47:44;;;;;;;18.70;7.45;;;;;;;;;;4976457;28;20050;-70
2023/09/30 05:50:14;;;;;;;21.27;7.72;;;;;;;;;;4976788;28;20046;-70
2023/09/30 05:52:40;;;;;;;17.95;7.35;;;;;;;;;;4975042;28;20080;-70
2023/09/30 05:55:06;;;;;;;16.63;6.05;;;;;;;;;;4976309;28;20108;-70
2023/09/30 05:57:32;;;;;;;20.60;7.28;;;;;;;;;;4976929;28;20186;-69
2023/09/30 05:59:58;;;;;;;22.17;7.43;;;;;;;;;;4976331;28;20532;-69
2023/09/30 06:02:23;;;;;;;15.93;6.40;;;;;;;;;;4977652;28;20054;-71
2023/09/30 06:04:50;;;;;;;17.88;6.53;;;;;;;;;;4974995;28;20049;-70
2023/09/30 06:07:16;;;;;;;17.42;6.47;;;;;;;;;;4975770;28;20495;-70
2023/09/30 06:09:42;;;;;;;18.73;7.15;;;;;;;;;;4975661;28;20045;-71
2023/09/30 06:12:08;;;;;;;18.20;6.97;;;;;;;;;;4976552;28;20050;-70
2023/09/30 06:14:33;;;;;;;16.90;6.45;;;;;;;;;;4973904;28;20054;-71
2023/09/30 06:16:59;;;;;;;16.05;6.22;;;;;;;;;;4977533;28;20053;-71
2023/09/30 06:19:25;;;;;;;18.85;6.82;;;;;;;;;;4980665;28;20062;-70
2023/09/30 06:21:51;;;;;;;17.27;6.97;;;;;;;;;;4980438;28;21110;-71
2023/09/30 06:24:19;;;;;;;19.75;6.85;;;;;;;;;;4980720;28;20054;-70
2023/09/30 06:26:45;;;;;;;16.45;6.45;;;;;;;;;;4977080;28;20055;-70
2023/09/30 06:29:11;;;;;;;17.63;6.50;;;;;;;;;;4978461;28;20447;-70
2023/09/30 06:31:37;;;;;;;17.65;6.93;;;;;;;;;;4980174;28;20050;-70
2023/09/30 06:34:03;;;;;;;15.45;6.05;;;;;;;;;;4980384;28;20046;-69
2023/09/30 06:36:29;;;;;;;15.25;6.28;;;;;;;;;;4978460;28;20039;-69
2023/09/30 06:38:54;;;;;;;23.95;7.75;;;;;;;;;;4979046;28;20065;-70
2023/09/30 06:41:20;;;;;;;21.30;6.22;;;;;;;;;;4977682;28;20126;-69
2023/09/30 06:43:46;;;;;;;20.75;6.22;;;;;;;;;;4979574;28;20137;-69
2023/09/30 06:46:13;;;;;;;20.45;6.43;;;;;;;;;;4979605;28;20057;-69
2023/09/30 06:48:41;;;;;;;17.83;5.85;;;;;;;;;;4979339;28;20113;-69
2023/09/30 06:51:07;;;;;;;19.55;6.95;;;;;;;;;;4979456;28;20058;-69
2023/09/30 06:53:33;;;;;;;18.75;5.97;;;;;;;;;;4980510;28;20042;-69
2023/09/30 06:55:58;;;;;;;18.05;6.45;;;;;;;;;;4994385;28;20529;-68
2023/09/30 06:58:24;;;;;;;21.58;6.80;;;;;;;;;;4978692;28;20092;-69
2023/09/30 07:00:55;;;;;;;13.65;5.65;;;;;;;;;;4978613;28;20120;-69
2023/09/30 07:03:21;;;;;;;19.27;5.90;;;;;;;;;;4979980;28;20459;-68
2023/09/30 07:05:49;;;;;;;21.25;5.78;;;;;;;;;;4979719;28;20515;-70
2023/09/30 07:08:16;;;;;;;22.05;6.38;;;;;;;;;;4978572;28;20054;-70
2023/09/30 07:10:42;;;;;;;15.30;5.97;;;;;;;;;;4979175;28;20081;-70
2023/09/30 07:13:08;;;;;;;16.60;5.53;;;;;;;;;;4978086;28;20220;-69
2023/09/30 07:15:33;;;;;;;13.63;5.13;;;;;;;;;;4979443;28;20042;-68
2023/09/30 07:17:59;;;;;;;17.80;6.40;;;;;;;;;;4979442;28;20089;-71
2023/09/30 07:20:24;;;;;;;18.35;6.80;;;;;;;;;;4980811;28;20082;-71
2023/09/30 07:22:50;;;;;;;17.63;5.88;;;;;;;;;;4979170;28;20089;-70
2023/09/30 07:25:17;;;;;;;16.38;5.60;;;;;;;;;;4980017;28;20054;-68
2023/09/30 07:27:45;;;;;;;17.63;5.80;;;;;;;;;;4980607;28;20042;-68
2023/09/30 07:30:12;;;;;;;18.02;6.30;;;;;;;;;;4980412;28;20504;-70
2023/09/30 07:32:38;;;;;;;13.55;5.63;;;;;;;;;;4979807;28;20423;-69
2023/09/30 07:35:03;;;;;;;14.05;5.43;;;;;;;;;;4980490;28;20085;-70
2023/09/30 07:37:29;;;;;;;15.65;6.15;;;;;;;;;;4980083;28;20046;-69
2023/09/30 07:39:54;;;;;;;14.55;5.43;;;;;;;;;;4980074;28;20090;-69
2023/09/30 07:42:22;;;;;;;14.80;5.03;;;;;;;;;;4980690;28;20038;-69
2023/09/30 07:44:47;;;;;;;17.55;6.20;;;;;;;;;;4979733;28;20050;-69
2023/09/30 07:47:13;;;;;;;16.38;6.30;;;;;;;;;;4978079;28;20594;-69
2023/09/30 07:49:38;;;;;;;13.57;5.70;;;;;;;;;;4978736;28;20161;-70
2023/09/30 07:52:04;;;;;;;14.40;5.90;;;;;;;;;;4976955;28;20046;-72
2023/09/30 07:54:29;;;;;;;14.73;5.13;;;;;;;;;;4978016;28;20625;-71
2023/09/30 07:56:55;;;;;;;15.13;5.13;;;;;;;;;;4980336;28;20050;-69
2023/09/30 07:59:21;;;;;;;13.98;5.47;;;;;;;;;;4978900;28;20042;-69
2023/09/30 08:01:48;;;;;;;12.95;5.55;;;;;;;;;;4983118;28;20051;-70
2023/09/30 08:04:13;;;;;;;17.35;6.40;;;;;;;;;;4979071;28;20046;-69
2023/09/30 08:06:39;;;;;;;13.70;5.63;;;;;;;;;;4978289;28;20046;-70
2023/09/30 08:09:09;;;;;;;18.23;6.03;;;;;;;;;;4979483;28;20054;-70
2023/09/30 08:11:36;;;;;;;14.25;5.60;;;;;;;;;;4980510;28;20486;-70
2023/09/30 08:14:06;;;;;;;14.70;5.68;;;;;;;;;;4979399;28;20173;-69
2023/09/30 08:16:33;;;;;;;16.08;5.88;;;;;;;;;;4993527;28;20054;-68
2023/09/30 08:18:58;;;;;;;19.67;6.38;;;;;;;;;;4980030;28;20065;-68
2023/09/30 08:21:23;;;;;;;14.65;5.57;;;;;;;;;;4980968;28;20042;-69
2023/09/30 08:23:49;;;;;;;16.17;5.55;;;;;;;;;;4981023;28;20109;-71
2023/09/30 08:26:14;;;;;;;14.50;5.43;;;;;;;;;;4980107;28;20072;-70
2023/09/30 08:28:40;;;;;;;18.33;5.80;;;;;;;;;;4979155;28;20072;-70
2023/09/30 08:31:05;;;;;;;13.30;4.82;;;;;;;;;;4979242;28;20054;-69
2023/09/30 08:33:36;;;;;;;13.68;4.30;;;;;;;;;;4979968;28;20561;-70
2023/09/30 08:36:07;;;;;;;13.90;4.82;;;;;;;;;;4978153;28;20046;-70
2023/09/30 08:38:37;;;;;;;13.32;4.75;;;;;;;;;;4978097;28;20057;-70
2023/09/30 08:41:02;;;;;;;13.48;4.72;;;;;;;;;;4979098;28;20105;-70
2023/09/30 08:43:30;;;;;;;11.63;4.63;;;;;;;;;;4979841;28;20050;-70
2023/09/30 08:45:57;;;;;;;8.60;3.78;;;;;;;;;;4978716;28;20486;-70
2023/09/30 08:48:28;;;;;;;10.38;4.22;;;;;;;;;;4979676;28;20178;-70
2023/09/30 08:50:54;;;;;;;10.55;4.20;;;;;;;;;;4977334;28;20054;-71
2023/09/30 08:53:20;;;;;;;9.20;4.50;;;;;;;;;;4965894;28;20081;-71
2023/09/30 08:55:47;;;;;;;10.35;3.53;;;;;;;;;;4980144;28;21142;-74
2023/09/30 08:58:13;;;;;;;9.82;4.10;;;;;;;;;;4978006;28;20046;-73
2023/09/30 09:00:39;;;;;;;9.65;3.63;;;;;;;;;;4977915;28;20050;-72
2023/09/30 09:03:07;;;;;;;8.85;3.83;;;;;;;;;;4977574;28;20205;-72
2023/09/30 09:05:32;;;;;;;9.50;3.08;;;;;;;;;;4979272;28;20058;-72
2023/09/30 09:07:57;;;;;;;8.48;3.80;;;;;;;;;;4980116;28;20057;-71
2023/09/30 09:10:23;;;;;;;8.27;3.17;;;;;;;;;;4980527;28;20042;-71
2023/09/30 09:12:58;;;;;;;10.52;3.45;;;;;;;;;;4993538;28;20046;-71
2023/09/30 09:15:26;;;;;;;9.82;3.67;;;;;;;;;;4979673;28;20046;-71
2023/09/30 09:17:52;;;;;;;10.60;4.03;;;;;;;;;;4979634;28;20069;-72
2023/09/30 09:20:28;;;;;;;10.82;3.63;;;;;;;;;;4978387;28;20107;-71
2023/09/30 09:22:55;;;;;;;8.02;3.33;;;;;;;;;;4977976;28;20077;-71
2023/09/30 09:25:24;;;;;;;9.82;3.83;;;;;;;;;;4978167;28;20038;-71
2023/09/30 09:27:51;;;;;;;11.27;3.88;;;;;;;;;;4978014;28;20078;-71
2023/09/30 09:30:18;;;;;;;9.65;4.03;;;;;;;;;;4979463;28;20044;-71
2023/09/30 09:32:58;;;;;;;10.15;4.20;;;;;;;;;;4977707;28;20200;-71
2023/09/30 09:35:32;;;;;;;9.75;4.22;;;;;;;;;;4979533;28;20085;-71
2023/09/30 09:38:04;;;;;;;10.00;3.95;;;;;;;;;;4967670;28;20050;-71
2023/09/30 09:40:35;;;;;;;7.65;3.72;;;;;;;;;;4979216;28;20100;-71
2023/09/30 09:43:04;;;;;;;9.93;4.05;;;;;;;;;;4979910;28;20046;-71
2023/09/30 09:45:32;;;;;;;7.72;4.18;;;;;;;;;;4979624;28;20061;-71
2023/09/30 09:47:58;;;;;;;13.68;4.40;;;;;;;;;;4979076;28;20097;-70
2023/09/30 09:50:24;;;;;;;8.65;4.07;;;;;;;;;;4978606;28;20121;-69
2023/09/30 09:52:52;;;;;;;12.73;4.90;;;;;;;;;;4981293;28;20073;-70
2023/09/30 09:55:21;;;;;;;11.27;4.50;;;;;;;;;;4982074;28;20104;-70
2023/09/30 09:57:47;;;;;;;11.93;5.20;;;;;;;;;;4982977;28;20054;-70
2023/09/30 10:00:18;;;;;;;10.02;4.38;;;;;;;;;;4983121;28;20108;-72
2023/09/30 10:02:45;;;;;;;10.23;4.77;;;;;;;;;;4980791;28;20039;-72
2023/09/30 10:05:12;;;;;;;13.25;4.90;;;;;;;;;;4982085;28;20054;-72
2023/09/30 10:07:44;;;;;;;10.20;4.38;;;;;;;;;;4982042;28;21034;-72
2023/09/30 10:10:13;;;;;;;;;;;;;;;;;;4981066;28;20495;-72
2023/09/30 10:12:39;;;;;;;11.57;5.03;;;;;;;;;;4981988;28;20179;-72
2023/09/30 10:15:26;;;;;;;12.48;5.35;;;;;;;;;;4981222;28;20650;-72
2023/09/30 10:17:59;;;;;;;12.10;5.03;;;;;;;;;;4981611;28;20045;-72
2023/09/30 10:20:28;;;;;;;11.35;5.32;;;;;;;;;;4980989;28;20559;-72
2023/09/30 10:23:24;;;;;;;12.35;4.55;;;;;;;;;;4981982;28;20057;-72
2023/09/30 10:26:13;;;;;;;11.27;4.60;;;;;;;;;;4985158;28;20143;-73
2023/09/30 10:28:48;;;;;;;16.70;6.50;;;;;;;;;;4979160;28;20141;-72
2023/09/30 10:31:21;;;;;;;12.98;5.47;;;;;;;;;;4981276;28;20054;-72
2023/09/30 10:33:59;;;;;;;14.43;5.50;;;;;;;;;;4982019;28;20136;-72
2023/09/30 10:36:35;;;;;;;15.23;5.45;;;;;;;;;;4981870;28;20046;-72
2023/09/30 10:39:01;;;;;;;16.80;6.10;;;;;;;;;;4991059;28;20047;-72
2023/09/30 10:41:40;;;;;;;15.13;6.65;;;;;;;;;;4980761;28;20039;-71
2023/09/30 10:44:27;;;;;;;15.55;6.35;;;;;;;;;;4966805;28;20050;-71
2023/09/30 10:46:54;;;;;;;14.23;5.88;;;;;;;;;;4965919;28;20101;-71
2023/09/30 10:49:22;;;;;;;14.35;6.32;;;;;;;;;;4966710;28;20046;-72
2023/09/30 10:51:50;;;;;;;14.95;5.93;;;;;;;;;;4966319;28;20069;-71
2023/09/30 10:54:23;;;;;;;14.68;6.60;;;;;;;;;;4968199;28;20047;-71
2023/09/30 10:56:48;;;;;;;13.57;5.32;;;;;;;;;;4967451;28;20039;-72
2023/09/30 10:59:24;;;;;;;13.23;5.72;;;;;;;;;;4967727;28;20054;-72
2023/09/30 11:01:50;;;;;;;14.77;6.32;;;;;;;;;;4962267;28;20072;-74
2023/09/30 11:04:15;;;;;;;14.07;6.05;;;;;;;;;;4960956;28;20099;-75
2023/09/30 11:06:42;;;;;;;13.32;5.88;;;;;;;;;;4959957;28;20117;-74
2023/09/30 11:09:14;;;;;;;15.00;6.05;;;;;;;;;;4960607;28;20492;-74
2023/09/30 11:11:48;;;;;;;15.15;6.03;;;;;;;;;;4962433;28;20055;-74
2023/09/30 11:14:18;;;;;;;15.40;6.10;;;;;;;;;;4961318;28;20157;-74
2023/09/30 11:16:44;;;;;;;13.30;5.40;;;;;;;;;;4960910;28;20090;-73
2023/09/30 11:19:11;;;;;;;15.43;5.85;;;;;;;;;;4961983;28;20072;-73
2023/09/30 11:21:37;;;;;;;16.70;6.43;;;;;;;;;;4961961;28;20101;-75
2023/09/30 11:24:03;;;;;;;13.85;5.88;;;;;;;;;;4960379;28;20046;-74
2023/09/30 11:26:33;;;;;;;13.00;5.85;;;;;;;;;;4962069;28;20862;-75
2023/09/30 11:29:27;;;;;;;13.23;5.63;;;;;;;;;;4980740;28;20089;-75
2023/09/30 11:31:52;;;;;;;14.10;5.82;;;;;;;;;;4985611;28;20097;-71
2023/09/30 11:34:19;;;;;;;13.93;5.60;;;;;;;;;;4984735;28;20057;-71
2023/09/30 11:36:50;;;;;;;13.27;6.00;;;;;;;;;;4983159;28;20101;-71
2023/09/30 11:39:27;;;;;;;16.60;6.90;;;;;;;;;;4985578;28;20065;-71
2023/09/30 11:41:55;;;;;;;16.08;6.20;;;;;;;;;;4986744;28;20332;-71
2023/09/30 11:44:20;;;;;;;16.92;6.30;;;;;;;;;;4985086;28;20042;-71
2023/09/30 11:46:49;;;;;;;13.57;5.38;;;;;;;;;;4984870;28;20053;-73
2023/09/30 11:49:38;;;;;;;16.13;6.13;;;;;;;;;;4975166;28;20046;-71
2023/09/30 11:52:07;;;;;;;16.88;6.97;;;;;;;;;;4985551;28;20050;-70
2023/09/30 11:54:43;;;;;;;15.50;6.28;;;;;;;;;;4985094;28;20046;-71
2023/09/30 11:57:18;;;;;;;17.23;7.28;;;;;;;;;;4983361;28;20054;-70
2023/09/30 11:59:45;;;;;;;16.25;6.60;;;;;;;;;;4985066;28;20050;-71
2023/09/30 12:02:14;;;;;;;16.27;6.15;;;;;;;;;;4983040;28;20567;-72
2023/09/30 12:04:41;;;;;;;14.73;5.22;;;;;;;;;;4984025;28;20057;-70
2023/09/30 12:07:08;;;;;;;14.32;5.82;;;;;;;;;;4983144;28;20515;-70
2023/09/30 12:09:37;;;;;;;13.38;5.95;;;;;;;;;;4984966;28;20050;-72
2023/09/30 12:12:03;;;;;;;15.30;5.50;;;;;;;;;;4984660;28;20090;-71
2023/09/30 12:14:30;;;;;;;15.45;6.47;;;;;;;;;;4984080;28;20043;-71
2023/09/30 12:16:55;;;;;;;13.55;6.22;;;;;;;;;;4982918;28;20046;-71
2023/09/30 12:19:21;;;;;;;18.80;7.50;;;;;;;;;;4982043;28;20053;-71
2023/09/30 12:21:47;;;;;;;18.90;6.45;;;;;;;;;;4997814;28;20120;-71
2023/09/30 12:24:19;;;;;;;22.92;6.68;;;;;;;;;;4985700;28;20107;-71
2023/09/30 12:26:48;;;;;;;14.65;5.93;;;;;;;;;;5000684;28;20050;-71
2023/09/30 12:29:18;;;;;;;11.77;5.35;;;;;;;;;;4984966;28;20072;-71
2023/09/30 12:31:44;;;;;;;17.40;6.18;;;;;;;;;;4985479;28;20137;-69
2023/09/30 12:34:11;;;;;;;8.93;4.28;;;;;;;;;;4985139;28;20042;-72
2023/09/30 12:36:36;;;;;;;11.90;4.30;;;;;;;;;;4983132;28;20054;-72
2023/09/30 12:39:10;;;;;;;11.18;4.47;;;;;;;;;;4984269;28;20068;-72
2023/09/30 12:41:42;;;;;;;14.27;4.30;;;;;;;;;;4984142;28;20045;-72
2023/09/30 12:44:09;;;;;;;10.05;4.55;;;;;;;;;;4984777;28;20050;-73
2023/09/30 12:46:36;;;;;;;13.35;4.30;;;;;;;;;;4984028;28;20105;-73
2023/09/30 12:49:08;;;;;;;14.75;5.68;;;;;;;;;;4984862;28;20054;-72
2023/09/30 12:51:34;;;;;;;14.55;5.35;;;;;;;;;;4983480;28;20133;-72
2023/09/30 12:54:01;;;;;;;14.43;5.28;;;;;;;;;;4985468;28;20129;-72
2023/09/30 12:56:29;;;;;;;14.88;5.50;;;;;;;;;;4984180;28;20448;-72
2023/09/30 12:58:55;;;;;;;16.00;5.50;;;;;;;;;;4983061;28;20046;-72
2023/09/30 13:01:22;;;;;;;13.43;5.10;;;;;;;;;;4981430;28;20434;-70
2023/09/30 13:03:48;;;;;;;13.18;5.75;;;;;;;;;;4984354;28;20117;-70
2023/09/30 13:06:15;;;;;;;12.13;5.38;;;;;;;;;;4984890;28;20046;-70
2023/09/30 13:08:41;;;;;;;10.77;4.45;;;;;;;;;;4982122;28;20038;-75
2023/09/30 13:11:08;;;;;;;14.85;5.20;;;;;;;;;;4978199;28;20057;-74
2023/09/30 13:13:33;;;;;;;16.20;5.57;;;;;;;;;;4962230;28;20051;-73
2023/09/30 13:16:05;;;;;;;13.20;5.65;;;;;;;;;;4982505;28;20458;-74
2023/09/30 13:18:31;;;;;;;13.68;5.10;;;;;;;;;;4981128;28;20057;-73
2023/09/30 13:20:57;;;;;;;13.23;5.38;;;;;;;;;;4979210;28;20407;-73
2023/09/30 13:23:22;;;;;;;18.35;5.72;;;;;;;;;;4977759;28;20065;-74
2023/09/30 13:25:48;;;;;;;13.77;5.43;;;;;;;;;;4978376;28;20034;-74
2023/09/30 13:28:13;;;;;;;11.88;5.68;;;;;;;;;;4978758;28;20050;-74
2023/09/30 13:30:39;;;;;;;19.65;6.82;;;;;;;;;;4977209;28;20649;-74
2023/09/30 13:33:05;;;;;;;15.65;5.95;;;;;;;;;;4979223;28;20054;-73
2023/09/30 13:35:30;;;;;;;15.27;5.00;;;;;;;;;;4978097;28;20051;-73
2023/09/30 13:37:56;;;;;;;14.32;5.45;;;;;;;;;;4978159;28;20399;-73
2023/09/30 13:40:21;;;;;;;12.95;5.38;;;;;;;;;;4979228;28;20050;-73
2023/09/30 13:42:46;;;;;;;15.05;5.75;;;;;;;;;;4978455;28;20042;-73
2023/09/30 13:45:12;;;;;;;11.20;4.72;;;;;;;;;;4979516;28;20164;-73
2023/09/30 13:47:38;;;;;;;13.93;4.93;;;;;;;;;;4978202;28;20056;-72
2023/09/30 13:50:04;;;;;;;14.07;5.03;;;;;;;;;;4993382;28;20053;-73
2023/09/30 13:52:29;;;;;;;14.02;5.32;;;;;;;;;;4978602;28;20054;-73
2023/09/30 13:54:55;;;;;;;13.80;5.53;;;;;;;;;;4976900;28;20054;-73
2023/09/30 13:57:21;;;;;;;14.18;5.03;;;;;;;;;;4977968;28;20103;-73
2023/09/30 13:59:47;;;;;;;14.80;5.60;;;;;;;;;;4978920;28;20097;-73
2023/09/30 14:02:12;;;;;;;13.15;4.88;;;;;;;;;;4978793;28;20100;-73
2023/09/30 14:04:38;;;;;;;14.07;5.85;;;;;;;;;;4977158;28;20479;-73
2023/09/30 14:07:05;;;;;;;12.23;5.15;;;;;;;;;;4978468;28;20113;-73
2023/09/30 14:09:31;;;;;;;13.40;5.43;;;;;;;;;;4977362;28;20086;-73
2023/09/30 14:11:58;;;;;;;12.80;5.10;;;;;;;;;;4978487;28;20078;-73
2023/09/30 14:14:24;;;;;;;12.48;5.10;;;;;;;;;;4978360;28;20050;-73
2023/09/30 14:16:49;;;;;;;16.58;5.53;;;;;;;;;;4978018;28;20049;-73
2023/09/30 14:19:15;;;;;;;17.63;5.55;;;;;;;;;;4978052;28;20093;-73
2023/09/30 14:21:40;;;;;;;14.02;5.38;;;;;;;;;;4978627;28;20042;-73
2023/09/30 14:24:06;;;;;;;16.50;5.70;;;;;;;;;;4977278;28;20042;-73
2023/09/30 14:26:33;;;;;;;15.52;5.70;;;;;;;;;;4978121;28;20054;-73
2023/09/30 14:28:58;;;;;;;12.82;5.22;;;;;;;;;;4976530;28;20720;-73
2023/09/30 14:31:24;;;;;;;13.07;5.13;;;;;;;;;;4977552;28;20042;-73